createdAt,value
2023-04-09T00:00:12.652Z,98844.69
2023-04-09T00:03:36.676Z,98842.48
2023-04-09T00:06:39.717Z,98839.15
2023-04-09T00:09:42.691Z,98837.88
2023-04-09T00:12:45.943Z,98832.14
2023-04-09T00:15:48.990Z,98834.17
2023-04-09T00:18:52.403Z,98830.23
2023-04-09T00:21:56.121Z,98830.31
2023-04-09T00:24:59.198Z,98829.43
2023-04-09T00:28:02.771Z,98836.50
2023-04-09T00:31:06.044Z,98840.08
2023-04-09T00:34:09.052Z,98841.61
2023-04-09T00:37:13.295Z,98839.16
2023-04-09T00:40:16.315Z,98836.98
2023-04-09T00:43:19.481Z,98829.82
2023-04-09T00:46:22.541Z,98825.05
2023-04-09T00:49:26.567Z,98826.96
2023-04-09T00:52:31.083Z,98833.33
2023-04-09T00:55:34.406Z,98833.94
2023-04-09T00:58:37.425Z,98835.55
2023-04-09T01:01:40.664Z,98840.52
2023-04-09T01:04:44.666Z,98840.76
2023-04-09T01:08:08.778Z,98850.42
2023-04-09T01:11:21.998Z,98850.77
2023-04-09T01:14:36.052Z,98853.15
2023-04-09T01:18:03.684Z,98848.95
2023-04-09T01:21:16.388Z,98847.77
2023-04-09T01:24:37.113Z,98846.69
2023-04-09T01:27:55.095Z,98849.81
2023-04-09T01:31:03.056Z,98845.16
2023-04-09T01:34:08.840Z,98845.02
2023-04-09T01:37:13.300Z,98843.52
2023-04-09T01:40:16.756Z,98846.48
2023-04-09T01:43:20.583Z,98849.60
2023-04-09T01:46:25.478Z,98848.90
2023-04-09T01:49:29.008Z,98851.73
2023-04-09T01:52:32.292Z,98856.89
2023-04-09T01:55:35.484Z,98853.36
2023-04-09T01:58:39.070Z,98853.58
2023-04-09T02:02:09.194Z,98850.77
2023-04-09T02:05:14.262Z,98854.52
2023-04-09T02:08:20.656Z,98852.46
2023-04-09T02:11:24.015Z,98855.46
2023-04-09T02:14:28.489Z,98855.92
2023-04-09T02:17:31.557Z,98854.16
2023-04-09T02:20:34.755Z,98856.97
2023-04-09T02:23:37.756Z,98853.45
2023-04-09T02:26:41.152Z,98852.02
2023-04-09T02:29:44.303Z,98844.23
2023-04-09T02:32:48.517Z,98839.90
2023-04-09T02:35:51.760Z,98840.56
2023-04-09T02:38:55.623Z,98841.58
2023-04-09T02:41:58.742Z,98845.02
2023-04-09T02:45:02.584Z,98845.38
2023-04-09T02:48:07.411Z,98846.31
2023-04-09T02:51:11.475Z,98846.14
2023-04-09T02:54:14.591Z,98846.05
2023-04-09T02:57:17.804Z,98847.25
2023-04-09T03:00:20.870Z,98842.16
2023-04-09T03:03:23.986Z,98836.70
2023-04-09T03:06:27.166Z,98841.40
2023-04-09T03:09:30.891Z,98845.22
2023-04-09T03:12:33.879Z,98846.54
2023-04-09T03:15:36.845Z,98847.35
2023-04-09T03:18:39.902Z,98848.56
2023-04-09T03:21:42.999Z,98850.42
2023-04-09T03:24:46.664Z,98847.77
2023-04-09T03:27:50.057Z,98842.38
2023-04-09T03:30:58.692Z,98842.37
2023-04-09T03:34:02.543Z,98839.09
2023-04-09T03:37:06.785Z,98832.59
2023-04-09T03:40:10.678Z,98830.09
2023-04-09T03:43:13.836Z,98818.56
2023-04-09T03:46:20.982Z,98812.90
2023-04-09T03:49:24.668Z,98816.20
2023-04-09T03:52:28.597Z,98822.48
2023-04-09T03:55:37.952Z,98828.44
2023-04-09T03:58:43.281Z,98833.16
2023-04-09T04:01:48.243Z,98837.27
2023-04-09T04:04:52.770Z,98836.44
2023-04-09T04:07:56.712Z,98840.36
2023-04-09T04:11:05.032Z,98839.06
2023-04-09T04:14:08.334Z,98834.50
2023-04-09T04:17:11.887Z,98834.30
2023-04-09T04:20:15.396Z,98835.02
2023-04-09T04:23:29.139Z,98837.86
2023-04-09T04:26:37.772Z,98840.58
2023-04-09T04:29:40.976Z,98846.59
2023-04-09T04:32:57.309Z,98845.55
2023-04-09T04:36:06.538Z,98847.86
2023-04-09T04:39:22.565Z,98849.14
2023-04-09T04:42:30.334Z,98848.88
2023-04-09T04:45:34.526Z,98854.73
2023-04-09T04:48:43.463Z,98856.58
2023-04-09T04:51:46.651Z,98856.91
2023-04-09T04:54:51.079Z,98855.24
2023-04-09T04:57:57.401Z,98857.23
2023-04-09T05:01:02.627Z,98851.56
2023-04-09T05:04:06.196Z,98846.52
2023-04-09T05:07:11.109Z,98852.36
2023-04-09T05:10:18.468Z,98848.55
2023-04-09T05:13:22.828Z,98845.44
2023-04-09T05:16:27.193Z,98846.64
2023-04-09T05:19:37.048Z,98843.27
2023-04-09T05:22:40.203Z,98846.34
2023-04-09T05:25:43.762Z,98848.70
2023-04-09T05:28:53.522Z,98853.91
2023-04-09T05:31:58.169Z,98857.00
2023-04-09T05:35:05.816Z,98860.12
2023-04-09T05:38:10.781Z,98862.23
2023-04-09T05:41:15.082Z,98869.36
2023-04-09T05:44:27.752Z,98872.92
2023-04-09T05:47:36.615Z,98870.83
2023-04-09T05:50:55.058Z,98874.63
2023-04-09T05:53:59.759Z,98874.27
2023-04-09T05:57:06.786Z,98875.00
2023-04-09T06:00:13.484Z,98876.61
2023-04-09T06:03:23.925Z,98872.83
2023-04-09T06:06:27.176Z,98875.14
2023-04-09T06:09:30.312Z,98874.30
2023-04-09T06:12:35.398Z,98877.92
2023-04-09T06:15:39.632Z,98885.11
2023-04-09T06:18:42.708Z,98887.00
2023-04-09T06:21:45.791Z,98889.52
2023-04-09T06:24:48.851Z,98892.15
2023-04-09T06:27:52.210Z,98891.65
2023-04-09T06:30:55.485Z,98894.38
2023-04-09T06:33:58.554Z,98892.23
2023-04-09T06:37:01.694Z,98896.96
2023-04-09T06:40:05.008Z,98896.96
2023-04-09T06:43:08.288Z,98903.19
2023-04-09T06:46:21.302Z,98906.05
2023-04-09T06:49:24.420Z,98906.55
2023-04-09T06:52:27.561Z,98910.73
2023-04-09T06:55:30.851Z,98917.27
2023-04-09T06:58:34.024Z,98917.07
2023-04-09T07:01:37.909Z,98915.84
2023-04-09T07:04:41.568Z,98920.11
2023-04-09T07:07:44.792Z,98917.96
2023-04-09T07:10:47.793Z,98916.49
2023-04-09T07:13:51.391Z,98917.10
2023-04-09T07:16:54.600Z,98916.01
2023-04-09T07:19:57.697Z,98920.58
2023-04-09T07:23:01.072Z,98920.88
2023-04-09T07:26:05.390Z,98921.04
2023-04-09T07:29:08.368Z,98924.09
2023-04-09T07:32:11.611Z,98917.81
2023-04-09T07:35:14.765Z,98920.98
2023-04-09T07:38:17.752Z,98919.58
2023-04-09T07:41:20.970Z,98923.20
2023-04-09T07:44:24.630Z,98925.25
2023-04-09T07:47:28.592Z,98926.21
2023-04-09T07:50:31.654Z,98927.14
2023-04-09T07:53:34.961Z,98925.21
2023-04-09T07:56:38.110Z,98927.52
2023-04-09T07:59:41.169Z,98929.79
2023-04-09T08:02:44.566Z,98932.05
2023-04-09T08:05:47.886Z,98931.11
2023-04-09T08:08:51.159Z,98932.34
2023-04-09T08:11:54.377Z,98932.16
2023-04-09T08:14:57.356Z,98936.44
2023-04-09T08:18:02.308Z,98934.75
2023-04-09T08:21:06.248Z,98937.16
2023-04-09T08:24:12.601Z,98939.30
2023-04-09T08:27:16.118Z,98939.98
2023-04-09T08:30:19.213Z,98941.65
2023-04-09T08:33:22.340Z,98940.59
2023-04-09T08:36:26.411Z,98941.00
2023-04-09T08:39:29.650Z,98945.08
2023-04-09T08:42:35.708Z,98941.65
2023-04-09T08:45:41.507Z,98943.44
2023-04-09T08:48:48.830Z,98938.77
2023-04-09T08:51:51.913Z,98938.95
2023-04-09T08:54:54.988Z,98936.77
2023-04-09T08:57:58.361Z,98939.42
2023-04-09T09:01:01.905Z,98941.58
2023-04-09T09:04:10.001Z,98943.04
2023-04-09T09:07:13.500Z,98944.46
2023-04-09T09:10:17.412Z,98947.25
2023-04-09T09:13:24.360Z,98949.73
2023-04-09T09:16:27.827Z,98952.70
2023-04-09T09:19:36.476Z,98946.77
2023-04-09T09:22:56.017Z,98950.94
2023-04-09T09:25:59.531Z,98947.55
2023-04-09T09:29:04.158Z,98950.30
2023-04-09T09:32:14.249Z,98945.13
2023-04-09T09:35:17.304Z,98950.08
2023-04-09T09:38:21.008Z,98945.27
2023-04-09T09:41:24.962Z,98944.41
2023-04-09T09:44:32.889Z,98943.20
2023-04-09T09:47:37.559Z,98941.54
2023-04-09T09:50:44.453Z,98936.47
2023-04-09T09:53:52.361Z,98939.79
2023-04-09T09:56:59.921Z,98936.49
2023-04-09T10:00:04.576Z,98941.40
2023-04-09T10:03:20.046Z,98933.77
2023-04-09T10:06:24.166Z,98930.78
2023-04-09T10:09:28.211Z,98930.55
2023-04-09T10:12:32.862Z,98928.09
2023-04-09T10:15:36.490Z,98922.05
2023-04-09T10:18:40.799Z,98925.50
2023-04-09T10:21:54.806Z,98924.09
2023-04-09T10:24:59.951Z,98923.21
2023-04-09T10:28:14.778Z,98922.41
2023-04-09T10:31:20.780Z,98919.63
2023-04-09T10:34:27.472Z,98919.66
2023-04-09T10:37:31.860Z,98917.56
2023-04-09T10:41:16.381Z,98918.26
2023-04-09T10:44:24.606Z,98921.83
2023-04-09T10:47:36.620Z,98922.73
2023-04-09T10:50:43.063Z,98920.48
2023-04-09T10:53:46.354Z,98922.48
2023-04-09T10:57:07.594Z,98921.96
2023-04-09T11:00:11.464Z,98925.39
2023-04-09T11:03:30.808Z,98923.40
2023-04-09T11:06:37.359Z,98925.96
2023-04-09T11:09:42.444Z,98920.50
2023-04-09T11:12:49.482Z,98919.69
2023-04-09T11:15:52.861Z,98917.56
2023-04-09T11:18:57.391Z,98915.48
2023-04-09T11:22:00.436Z,98919.16
2023-04-09T11:25:03.695Z,98922.14
2023-04-09T11:28:08.182Z,98922.33
2023-04-09T11:31:11.309Z,98921.94
2023-04-09T11:34:14.452Z,98921.52
2023-04-09T11:37:18.508Z,98921.66
2023-04-09T11:40:23.622Z,98924.17
2023-04-09T11:43:26.596Z,98920.73
2023-04-09T11:46:32.732Z,98922.39
2023-04-09T11:49:36.089Z,98921.86
2023-04-09T11:52:40.270Z,98924.61
2023-04-09T11:55:43.455Z,98924.97
2023-04-09T11:58:47.904Z,98922.54
2023-04-09T12:01:52.049Z,98922.88
2023-04-09T12:04:55.602Z,98924.89
2023-04-09T12:08:08.478Z,98922.74
2023-04-09T12:11:13.079Z,98928.66
2023-04-09T12:14:17.683Z,98929.12
2023-04-09T12:17:21.268Z,98930.58
2023-04-09T12:20:35.929Z,98931.65
2023-04-09T12:23:38.991Z,98930.48
2023-04-09T12:26:42.056Z,98932.45
2023-04-09T12:29:45.078Z,98932.13
2023-04-09T12:32:48.329Z,98930.79
2023-04-09T12:35:51.724Z,98929.84
2023-04-09T12:38:54.903Z,98926.73
2023-04-09T12:41:57.953Z,98930.40
2023-04-09T12:45:01.333Z,98926.64
2023-04-09T12:48:04.487Z,98925.15
2023-04-09T12:51:07.671Z,98925.63
2023-04-09T12:54:11.083Z,98923.11
2023-04-09T12:57:14.051Z,98922.51
2023-04-09T13:00:17.143Z,98918.20
2023-04-09T13:03:21.351Z,98913.84
2023-04-09T13:06:24.479Z,98914.58
2023-04-09T13:09:27.830Z,98913.60
2023-04-09T13:12:31.425Z,98912.50
2023-04-09T13:15:34.502Z,98912.61
2023-04-09T13:18:37.515Z,98917.66
2023-04-09T13:21:40.599Z,98918.30
2023-04-09T13:24:43.655Z,98912.34
2023-04-09T13:27:46.828Z,98911.41
2023-04-09T13:30:49.944Z,98913.69
2023-04-09T13:33:52.948Z,98911.17
2023-04-09T13:36:56.360Z,98912.44
2023-04-09T13:39:59.784Z,98909.92
2023-04-09T13:43:02.894Z,98911.54
2023-04-09T13:46:06.275Z,98911.62
2023-04-09T13:49:09.254Z,98912.17
2023-04-09T13:52:14.201Z,98905.39
2023-04-09T13:55:17.303Z,98897.83
2023-04-09T13:58:22.528Z,98893.44
2023-04-09T14:01:27.522Z,98889.01
2023-04-09T14:04:30.663Z,98888.90
2023-04-09T14:07:33.792Z,98894.06
2023-04-09T14:10:36.813Z,98891.05
2023-04-09T14:13:39.862Z,98887.38
2023-04-09T14:16:43.170Z,98891.95
2023-04-09T14:19:46.215Z,98893.04
2023-04-09T14:22:49.548Z,98891.48
2023-04-09T14:25:53.468Z,98892.75
2023-04-09T14:28:56.471Z,98890.54
2023-04-09T14:32:01.030Z,98887.06
2023-04-09T14:35:04.699Z,98886.55
2023-04-09T14:38:10.032Z,98884.25
2023-04-09T14:41:13.147Z,98886.44
2023-04-09T14:44:16.256Z,98883.21
2023-04-09T14:47:19.369Z,98881.39
2023-04-09T14:50:22.415Z,98880.19
2023-04-09T14:53:25.476Z,98882.20
2023-04-09T14:56:28.436Z,98883.96
2023-04-09T14:59:31.415Z,98881.80
2023-04-09T15:02:35.433Z,98880.48
2023-04-09T15:05:39.288Z,98883.13
2023-04-09T15:08:42.248Z,98884.88
2023-04-09T15:11:45.286Z,98885.62
2023-04-09T15:14:48.308Z,98886.48
2023-04-09T15:17:51.459Z,98888.50
2023-04-09T15:20:54.485Z,98889.73
2023-04-09T15:23:59.087Z,98888.36
2023-04-09T15:27:02.120Z,98890.91
2023-04-09T15:30:05.952Z,98895.17
2023-04-09T15:33:08.972Z,98891.14
2023-04-09T15:36:12.111Z,98891.39
2023-04-09T15:39:15.232Z,98894.86
2023-04-09T15:42:22.448Z,98892.20
2023-04-09T15:45:26.259Z,98891.27
2023-04-09T15:48:29.270Z,98889.23
2023-04-09T15:51:32.422Z,98886.14
2023-04-09T15:54:35.367Z,98890.17
2023-04-09T15:57:38.751Z,98888.79
2023-04-09T16:00:42.070Z,98887.10
2023-04-09T16:03:50.582Z,98882.83
2023-04-09T16:06:55.463Z,98876.89
2023-04-09T16:10:00.707Z,98881.66
2023-04-09T16:13:03.860Z,98885.25
2023-04-09T16:16:07.319Z,98889.79
2023-04-09T16:19:10.305Z,98889.60
2023-04-09T16:22:13.392Z,98893.42
2023-04-09T16:25:16.456Z,98891.44
2023-04-09T16:28:21.962Z,98890.78
2023-04-09T16:31:27.483Z,98890.52
2023-04-09T16:34:32.150Z,98897.02
2023-04-09T16:37:35.338Z,98898.29
2023-04-09T16:40:38.299Z,98899.02
2023-04-09T16:43:41.513Z,98903.21
2023-04-09T16:46:47.662Z,98911.56
2023-04-09T16:49:51.255Z,98915.67
2023-04-09T16:52:56.763Z,98916.73
2023-04-09T16:55:59.816Z,98918.80
2023-04-09T16:59:05.158Z,98925.81
2023-04-09T17:02:08.973Z,98927.18
2023-04-09T17:05:12.330Z,98928.39
2023-04-09T17:08:17.226Z,98927.83
2023-04-09T17:11:21.437Z,98932.59
2023-04-09T17:14:24.509Z,98934.08
2023-04-09T17:17:29.162Z,98933.63
2023-04-09T17:20:32.313Z,98936.42
2023-04-09T17:23:36.281Z,98939.09
2023-04-09T17:26:43.732Z,98939.10
2023-04-09T17:29:46.886Z,98944.33
2023-04-09T17:32:51.163Z,98947.29
2023-04-09T17:35:54.399Z,98949.31
2023-04-09T17:38:57.964Z,98954.40
2023-04-09T17:42:03.391Z,98956.73
2023-04-09T17:45:07.488Z,98963.55
2023-04-09T17:48:10.880Z,98967.29
2023-04-09T17:51:16.438Z,98972.27
2023-04-09T17:54:19.495Z,98981.60
2023-04-09T17:57:22.467Z,98985.88
2023-04-09T18:00:25.808Z,98990.55
2023-04-09T18:03:28.903Z,98996.35
2023-04-09T18:06:32.171Z,99001.44
2023-04-09T18:09:35.170Z,99006.90
2023-04-09T18:12:38.216Z,99006.33
2023-04-09T18:15:41.531Z,99012.01
2023-04-09T18:18:44.557Z,99008.59
2023-04-09T18:21:47.521Z,99007.85
2023-04-09T18:24:52.022Z,99007.82
2023-04-09T18:27:54.972Z,99011.76
2023-04-09T18:30:58.880Z,99010.94
2023-04-09T18:34:02.183Z,99014.64
2023-04-09T18:37:05.332Z,99012.48
2023-04-09T18:40:15.946Z,99014.02
2023-04-09T18:43:18.915Z,99017.41
2023-04-09T18:46:22.918Z,99014.34
2023-04-09T18:49:27.024Z,99014.73
2023-04-09T18:52:29.985Z,99008.06
2023-04-09T18:55:35.882Z,99006.20
2023-04-09T18:58:38.949Z,99009.25
2023-04-09T19:01:42.383Z,99006.24
2023-04-09T19:04:45.821Z,99008.55
2023-04-09T19:07:48.914Z,99002.94
2023-04-09T19:10:53.602Z,98998.98
2023-04-09T19:13:56.724Z,98996.33
2023-04-09T19:16:59.849Z,98992.77
2023-04-09T19:20:03.017Z,98995.08
2023-04-09T19:23:06.709Z,98995.35
2023-04-09T19:26:09.755Z,98995.23
2023-04-09T19:29:12.764Z,99001.08
2023-04-09T19:32:16.250Z,99004.39
2023-04-09T19:35:19.276Z,99006.89
2023-04-09T19:38:22.416Z,99008.56
2023-04-09T19:41:25.389Z,99007.98
2023-04-09T19:44:28.415Z,99013.48
2023-04-09T19:47:31.765Z,99011.28
2023-04-09T19:50:39.017Z,99008.83
2023-04-09T19:53:43.539Z,99014.09
2023-04-09T19:56:47.548Z,99013.52
2023-04-09T19:59:52.245Z,99014.94
2023-04-09T20:02:55.835Z,99014.39
2023-04-09T20:05:59.165Z,99018.70
2023-04-09T20:09:02.216Z,99019.02
2023-04-09T20:12:07.035Z,99015.33
2023-04-09T20:15:10.495Z,99014.23
2023-04-09T20:18:13.502Z,99016.73
2023-04-09T20:21:16.527Z,99016.98
2023-04-09T20:24:19.573Z,99015.50
2023-04-09T20:27:22.669Z,99017.23
2023-04-09T20:30:25.936Z,99018.42
2023-04-09T20:33:28.941Z,99020.92
2023-04-09T20:36:32.421Z,99025.55
2023-04-09T20:39:35.439Z,99026.17
2023-04-09T20:42:40.470Z,99025.54
2023-04-09T20:45:43.494Z,99026.77
2023-04-09T20:48:46.554Z,99027.48
2023-04-09T20:51:50.048Z,99026.91
2023-04-09T20:54:53.408Z,99030.51
2023-04-09T20:57:57.040Z,99030.02
2023-04-09T21:01:07.795Z,99027.45
2023-04-09T21:04:11.364Z,99027.91
2023-04-09T21:07:14.697Z,99027.91
2023-04-09T21:10:17.916Z,99027.10
2023-04-09T21:13:21.054Z,99026.23
2023-04-09T21:16:26.073Z,99027.77
2023-04-09T21:19:29.158Z,99025.00
2023-04-09T21:22:32.114Z,99025.36
2023-04-09T21:25:35.162Z,99026.54
2023-04-09T21:28:38.214Z,99027.15
2023-04-09T21:31:41.831Z,99023.15
2023-04-09T21:34:44.804Z,99026.20
2023-04-09T21:37:48.223Z,99024.14
2023-04-09T21:40:51.309Z,99021.15
2023-04-09T21:43:54.385Z,99020.77
2023-04-09T21:46:57.476Z,99026.86
2023-04-09T21:50:00.628Z,99028.56
2023-04-09T21:53:03.636Z,99028.55
2023-04-09T21:56:07.025Z,99029.64
2023-04-09T21:59:09.940Z,99024.86
2023-04-09T22:02:13.100Z,99026.67
2023-04-09T22:05:16.349Z,99024.41
2023-04-09T22:08:19.342Z,99033.40
2023-04-09T22:11:28.149Z,99031.27
2023-04-09T22:14:33.840Z,99032.75
2023-04-09T22:17:36.845Z,99036.20
2023-04-09T22:20:39.941Z,99034.30
2023-04-09T22:23:43.752Z,99036.58
2023-04-09T22:26:47.044Z,99032.79
2023-04-09T22:29:50.311Z,99031.16
2023-04-09T22:32:53.338Z,99032.06
2023-04-09T22:35:56.661Z,99032.90
2023-04-09T22:38:59.664Z,99034.53
2023-04-09T22:42:03.080Z,99033.17
2023-04-09T22:45:06.656Z,99026.19
2023-04-09T22:48:09.738Z,99028.67
2023-04-09T22:51:14.147Z,99029.98
2023-04-09T22:54:17.265Z,99026.90
2023-04-09T22:57:20.460Z,99027.83
2023-04-09T23:00:23.555Z,99030.56
2023-04-09T23:03:26.719Z,99033.91
2023-04-09T23:06:30.999Z,99032.04
2023-04-09T23:09:34.077Z,99034.84
2023-04-09T23:12:37.160Z,99025.94
2023-04-09T23:15:41.329Z,99024.63
2023-04-09T23:18:44.457Z,99023.19
2023-04-09T23:21:47.400Z,99021.14
2023-04-09T23:24:50.613Z,99024.41
2023-04-09T23:27:53.617Z,99020.33
2023-04-09T23:30:56.914Z,99022.53
2023-04-09T23:33:59.876Z,99025.35
2023-04-09T23:37:02.898Z,99022.60
2023-04-09T23:40:07.213Z,99023.80
2023-04-09T23:43:10.242Z,99016.66
2023-04-09T23:46:13.211Z,99014.63
2023-04-09T23:49:16.268Z,99011.87
2023-04-09T23:52:19.231Z,99013.84
2023-04-09T23:55:22.303Z,99008.00
2023-04-09T23:58:25.479Z,99002.44
